createdAt,value
2022-10-08T00:01:15.477Z,6.10
2022-10-08T00:06:20.715Z,5.50
2022-10-08T00:11:27.722Z,5.83
2022-10-08T00:16:32.941Z,4.93
2022-10-08T00:21:38.743Z,4.50
2022-10-08T00:26:44.651Z,5.40
2022-10-08T00:31:50.417Z,5.10
2022-10-08T00:36:55.529Z,4.57
2022-10-08T00:42:00.719Z,4.40
2022-10-08T00:47:04.466Z,4.40
2022-10-08T00:52:08.968Z,5.30
2022-10-08T00:57:13.869Z,4.83
2022-10-08T01:02:19.419Z,4.13
2022-10-08T01:07:28.277Z,5.07
2022-10-08T01:12:42.294Z,4.93
2022-10-08T01:17:53.146Z,4.47
2022-10-08T01:23:19.934Z,5.07
2022-10-08T01:28:31.529Z,7.13
2022-10-08T01:33:40.838Z,5.27
2022-10-08T01:38:49.834Z,5.70
2022-10-08T01:44:02.692Z,5.40
2022-10-08T01:49:11.678Z,6.33
2022-10-08T01:54:17.142Z,6.07
2022-10-08T01:59:25.554Z,6.53
2022-10-08T02:04:37.781Z,6.80
2022-10-08T02:09:44.456Z,7.37
2022-10-08T02:14:51.228Z,7.23
2022-10-08T02:19:58.992Z,7.50
2022-10-08T02:25:11.590Z,7.30
2022-10-08T02:30:16.799Z,7.47
2022-10-08T02:35:25.542Z,7.10
2022-10-08T02:40:32.016Z,8.03
2022-10-08T02:45:42.950Z,8.23
2022-10-08T02:50:49.041Z,7.33
2022-10-08T02:56:04.287Z,6.30
2022-10-08T03:01:16.023Z,6.83
2022-10-08T03:06:20.096Z,7.80
2022-10-08T03:11:23.869Z,7.50
2022-10-08T03:16:37.192Z,8.13
2022-10-08T03:21:43.222Z,8.80
2022-10-08T03:26:46.645Z,8.13
2022-10-08T03:31:52.105Z,8.10
2022-10-08T03:36:55.812Z,8.93
2022-10-08T03:41:59.269Z,9.03
2022-10-08T03:47:04.181Z,9.33
2022-10-08T03:52:07.875Z,8.60
2022-10-08T03:57:11.265Z,9.20
2022-10-08T04:02:16.336Z,9.30
2022-10-08T04:07:20.199Z,11.03
2022-10-08T04:12:23.589Z,10.73
2022-10-08T04:17:28.633Z,10.70
2022-10-08T04:22:32.092Z,8.73
2022-10-08T04:27:35.799Z,11.03
2022-10-08T04:32:40.604Z,13.30
2022-10-08T04:37:43.979Z,10.93
2022-10-08T04:42:52.367Z,9.77
2022-10-08T04:47:57.302Z,12.20
2022-10-08T04:53:00.672Z,13.37
2022-10-08T04:58:04.128Z,10.27
2022-10-08T05:03:09.030Z,11.47
2022-10-08T05:08:12.737Z,11.27
2022-10-08T05:13:16.198Z,10.47
2022-10-08T05:18:21.134Z,10.90
2022-10-08T05:23:24.564Z,10.77
2022-10-08T05:28:28.032Z,9.67
2022-10-08T05:33:32.884Z,10.43
2022-10-08T05:38:36.581Z,10.53
2022-10-08T05:43:40.736Z,10.00
2022-10-08T05:48:47.354Z,9.47
2022-10-08T05:53:52.366Z,9.43
2022-10-08T05:58:56.151Z,9.60
2022-10-08T06:04:08.199Z,10.13
2022-10-08T06:09:14.752Z,10.50
2022-10-08T06:14:20.535Z,9.43
2022-10-08T06:19:25.368Z,10.03
2022-10-08T06:24:29.091Z,8.83
2022-10-08T06:29:32.579Z,9.60
2022-10-08T06:34:37.368Z,9.23
2022-10-08T06:39:42.869Z,8.80
2022-10-08T06:44:49.873Z,8.17
2022-10-08T06:49:55.011Z,8.50
2022-10-08T06:54:58.403Z,7.47
2022-10-08T07:00:01.772Z,7.57
2022-10-08T07:05:09.020Z,7.73
2022-10-08T07:10:17.698Z,6.80
2022-10-08T07:15:22.188Z,7.30
2022-10-08T07:20:27.287Z,6.47
2022-10-08T07:25:31.010Z,6.35
2022-10-08T07:30:37.665Z,5.97
2022-10-08T07:35:42.755Z,5.65
2022-10-08T07:40:46.823Z,5.07
2022-10-08T07:45:51.268Z,5.90
2022-10-08T07:50:56.198Z,5.53
2022-10-08T07:55:59.543Z,5.32
2022-10-08T08:01:04.371Z,5.07
2022-10-08T08:06:12.267Z,6.10
2022-10-08T08:11:18.542Z,5.15
2022-10-08T08:16:25.490Z,5.80
2022-10-08T08:21:33.040Z,4.57
2022-10-08T08:26:39.076Z,5.00
2022-10-08T08:31:44.450Z,4.75
2022-10-08T08:36:50.713Z,7.35
2022-10-08T08:42:04.067Z,8.32
2022-10-08T08:47:13.817Z,4.95
2022-10-08T08:52:21.557Z,5.93
2022-10-08T08:57:45.097Z,4.32
2022-10-08T09:02:56.330Z,4.30
2022-10-08T09:08:08.618Z,4.32
2022-10-08T09:13:18.198Z,3.70
2022-10-08T09:18:21.626Z,4.03
2022-10-08T09:23:28.335Z,4.03
2022-10-08T09:28:46.580Z,3.90
2022-10-08T09:33:56.962Z,4.35
2022-10-08T09:39:04.474Z,4.40
2022-10-08T09:44:20.319Z,3.75
2022-10-08T09:49:32.451Z,4.00
2022-10-08T09:54:46.460Z,3.78
2022-10-08T09:59:54.411Z,3.58
2022-10-08T10:04:59.186Z,3.10
2022-10-08T10:10:05.569Z,3.38
2022-10-08T10:15:16.524Z,3.70
2022-10-08T10:20:25.291Z,3.10
2022-10-08T10:25:38.541Z,3.47
2022-10-08T10:30:52.884Z,3.13
2022-10-08T10:36:00.531Z,3.25
2022-10-08T10:41:14.492Z,3.00
2022-10-08T10:46:30.763Z,3.03
2022-10-08T10:51:50.277Z,3.50
2022-10-08T10:56:59.379Z,3.40
2022-10-08T11:02:14.918Z,3.17
2022-10-08T11:07:33.950Z,3.20
2022-10-08T11:12:48.875Z,3.33
2022-10-08T11:18:25.486Z,3.25
2022-10-08T11:23:44.291Z,3.13
2022-10-08T11:34:03.750Z,2.90
2022-10-08T11:39:17.463Z,3.03
2022-10-08T11:44:22.728Z,2.90
2022-10-08T11:49:52.026Z,2.42
2022-10-08T11:54:56.095Z,2.75
2022-10-08T12:00:08.008Z,2.75
2022-10-08T12:05:31.131Z,2.97
2022-10-08T12:10:35.753Z,2.22
2022-10-08T12:15:59.840Z,2.60
2022-10-08T12:21:54.890Z,2.40
2022-10-08T12:27:35.401Z,2.55
2022-10-08T12:32:57.870Z,2.90
2022-10-08T12:38:21.148Z,2.60
2022-10-08T12:43:34.868Z,2.78
2022-10-08T12:48:45.588Z,2.33
2022-10-08T12:53:49.779Z,3.20
2022-10-08T12:58:56.200Z,2.60
2022-10-08T13:04:20.321Z,2.70
2022-10-08T13:09:27.427Z,2.70
2022-10-08T13:14:32.995Z,2.75
2022-10-08T13:19:39.344Z,2.50
2022-10-08T13:24:44.585Z,2.28
2022-10-08T13:29:48.333Z,3.17
2022-10-08T13:34:55.226Z,3.00
2022-10-08T13:40:00.887Z,2.80
2022-10-08T13:45:06.824Z,2.80
2022-10-08T13:50:12.071Z,2.75
2022-10-08T13:55:23.817Z,3.08
2022-10-08T14:00:27.830Z,2.60
2022-10-08T14:05:36.448Z,2.85
2022-10-08T14:10:41.816Z,3.15
2022-10-08T14:15:45.221Z,2.63
2022-10-08T14:20:52.466Z,2.38
2022-10-08T14:25:55.862Z,3.05
2022-10-08T14:30:59.368Z,2.45
2022-10-08T14:36:05.850Z,2.60
2022-10-08T14:41:10.057Z,2.72
2022-10-08T14:46:13.840Z,2.60
2022-10-08T14:51:18.763Z,2.42
2022-10-08T14:56:22.781Z,2.47
2022-10-08T15:01:26.648Z,2.40
2022-10-08T15:06:31.800Z,2.40
2022-10-08T15:11:35.526Z,2.35
2022-10-08T15:16:39.730Z,2.97
2022-10-08T15:21:44.744Z,2.38
2022-10-08T15:26:48.191Z,2.50
2022-10-08T15:31:51.702Z,2.03
2022-10-08T15:36:56.915Z,3.53
2022-10-08T15:42:00.337Z,3.13
2022-10-08T15:47:06.457Z,3.33
2022-10-08T15:52:13.521Z,3.30
2022-10-08T15:57:19.008Z,3.60
2022-10-08T16:02:22.808Z,2.78
2022-10-08T16:07:27.718Z,4.20
2022-10-08T16:12:31.145Z,4.00
2022-10-08T16:17:34.782Z,4.00
2022-10-08T16:22:39.689Z,4.38
2022-10-08T16:27:43.437Z,3.80
2022-10-08T16:32:47.421Z,4.72
2022-10-08T16:37:54.594Z,4.65
2022-10-08T16:42:57.958Z,5.13
2022-10-08T16:48:01.562Z,5.07
2022-10-08T16:53:08.662Z,4.57
2022-10-08T16:58:12.377Z,5.20
2022-10-08T17:03:16.441Z,5.37
2022-10-08T17:08:21.258Z,4.95
2022-10-08T17:13:24.672Z,5.77
2022-10-08T17:18:28.348Z,5.63
2022-10-08T17:23:38.220Z,6.50
2022-10-08T17:28:43.567Z,5.57
2022-10-08T17:33:47.769Z,6.00
2022-10-08T17:38:55.206Z,6.10
2022-10-08T17:44:00.613Z,5.70
2022-10-08T17:49:05.648Z,7.30
2022-10-08T17:54:14.842Z,6.23
2022-10-08T17:59:19.642Z,6.90
2022-10-08T18:04:23.024Z,6.93
2022-10-08T18:09:29.351Z,5.63
2022-10-08T18:14:32.808Z,5.70
2022-10-08T18:19:36.441Z,5.97
2022-10-08T18:24:41.301Z,5.77
2022-10-08T18:29:44.957Z,6.00
2022-10-08T18:34:48.350Z,7.07
2022-10-08T18:39:53.116Z,5.53
2022-10-08T18:44:56.680Z,6.00
2022-10-08T18:50:00.080Z,5.73
2022-10-08T18:55:05.266Z,5.60
2022-10-08T19:00:09.896Z,5.57
2022-10-08T19:05:13.304Z,5.70
2022-10-08T19:10:18.590Z,6.33
2022-10-08T19:15:22.000Z,5.40
2022-10-08T19:20:25.426Z,5.13
2022-10-08T19:25:31.862Z,5.80
2022-10-08T19:30:35.412Z,5.63
2022-10-08T19:35:39.148Z,5.67
2022-10-08T19:40:43.934Z,6.07
2022-10-08T19:45:47.361Z,5.73
2022-10-08T19:50:50.788Z,6.40
2022-10-08T19:55:55.580Z,5.67
2022-10-08T20:00:59.928Z,5.23
2022-10-08T20:06:03.883Z,5.10
2022-10-08T20:11:10.744Z,4.97
2022-10-08T20:16:16.050Z,5.20
2022-10-08T20:21:20.738Z,4.87
2022-10-08T20:26:27.522Z,4.70
2022-10-08T20:31:32.839Z,4.90
2022-10-08T20:36:36.941Z,5.30
2022-10-08T20:41:42.015Z,5.27
2022-10-08T20:46:45.627Z,5.33
2022-10-08T20:51:49.489Z,5.97
2022-10-08T20:56:54.583Z,4.90
2022-10-08T21:01:58.058Z,5.87
2022-10-08T21:07:01.849Z,5.37
2022-10-08T21:12:06.703Z,5.77
2022-10-08T21:17:10.102Z,5.13
2022-10-08T21:22:13.494Z,6.03
2022-10-08T21:27:18.275Z,5.20
2022-10-08T21:32:21.655Z,7.03
2022-10-08T21:37:25.430Z,5.57
2022-10-08T21:42:30.231Z,5.30
2022-10-08T21:47:33.568Z,5.60
2022-10-08T21:52:37.310Z,5.00
2022-10-08T21:57:42.152Z,5.70
2022-10-08T22:02:45.698Z,5.50
2022-10-08T22:07:49.229Z,4.90
2022-10-08T22:12:54.088Z,4.47
2022-10-08T22:17:57.739Z,4.87
2022-10-08T22:23:01.426Z,5.27
2022-10-08T22:28:06.581Z,5.63
2022-10-08T22:33:10.031Z,4.97
2022-10-08T22:38:14.299Z,4.37
2022-10-08T22:43:19.077Z,4.90
2022-10-08T22:48:22.727Z,4.70
2022-10-08T22:53:26.119Z,4.20
2022-10-08T22:58:30.921Z,4.40
2022-10-08T23:03:35.075Z,4.30
2022-10-08T23:08:38.501Z,4.40
2022-10-08T23:13:45.697Z,4.20
2022-10-08T23:18:54.403Z,4.80
2022-10-08T23:23:58.558Z,4.40
2022-10-08T23:29:03.804Z,3.97
2022-10-08T23:34:08.681Z,4.00
2022-10-08T23:39:14.944Z,4.40
2022-10-08T23:44:19.828Z,4.10
2022-10-08T23:49:23.298Z,4.23
2022-10-08T23:54:27.067Z,3.80
2022-10-08T23:59:31.894Z,3.90
